createdAt,value
2022-08-10T00:00:51.744Z,15.58
2022-08-10T00:03:18.196Z,15.55
2022-08-10T00:05:52.598Z,15.53
2022-08-10T00:08:24.110Z,15.47
2022-08-10T00:10:54.315Z,15.44
2022-08-10T00:13:21.310Z,15.40
2022-08-10T00:15:53.947Z,15.37
2022-08-10T00:18:34.715Z,15.33
2022-08-10T00:21:01.934Z,15.26
2022-08-10T00:23:28.385Z,15.22
2022-08-10T00:25:54.823Z,15.22
2022-08-10T00:28:21.257Z,15.18
2022-08-10T00:30:47.711Z,15.14
2022-08-10T00:33:14.171Z,15.10
2022-08-10T00:35:40.599Z,15.06
2022-08-10T00:38:07.032Z,15.02
2022-08-10T00:40:37.285Z,14.94
2022-08-10T00:43:05.248Z,14.93
2022-08-10T00:45:31.660Z,14.90
2022-08-10T00:47:58.091Z,14.88
2022-08-10T00:50:24.561Z,14.84
2022-08-10T00:52:50.999Z,14.80
2022-08-10T00:55:17.613Z,14.74
2022-08-10T00:57:44.101Z,14.70
2022-08-10T01:00:11.573Z,14.66
2022-08-10T01:02:38.651Z,14.65
2022-08-10T01:05:07.804Z,14.65
2022-08-10T01:07:42.809Z,14.59
2022-08-10T01:10:27.765Z,14.55
2022-08-10T01:13:04.320Z,14.50
2022-08-10T01:15:50.177Z,14.45
2022-08-10T01:18:37.688Z,14.41
2022-08-10T01:21:19.505Z,14.38
2022-08-10T01:24:04.711Z,14.34
2022-08-10T01:26:40.680Z,14.29
2022-08-10T01:29:10.391Z,14.29
2022-08-10T01:31:40.677Z,14.25
2022-08-10T01:34:13.083Z,14.22
2022-08-10T01:36:46.383Z,14.18
2022-08-10T01:39:14.669Z,14.14
2022-08-10T01:41:46.318Z,14.12
2022-08-10T01:44:24.773Z,14.06
2022-08-10T01:46:57.248Z,14.03
2022-08-10T01:49:24.757Z,14.02
2022-08-10T01:51:54.251Z,13.99
2022-08-10T01:54:23.003Z,13.99
2022-08-10T01:56:50.811Z,13.94
2022-08-10T01:59:30.260Z,13.90
2022-08-10T02:02:00.187Z,13.88
2022-08-10T02:04:27.842Z,13.82
2022-08-10T02:06:54.855Z,13.78
2022-08-10T02:09:23.945Z,13.71
2022-08-10T02:12:06.098Z,13.68
2022-08-10T02:14:40.552Z,13.62
2022-08-10T02:17:09.281Z,13.59
2022-08-10T02:19:57.391Z,13.55
2022-08-10T02:22:37.954Z,13.52
2022-08-10T02:25:07.011Z,13.56
2022-08-10T02:27:33.798Z,13.51
2022-08-10T02:30:01.651Z,13.46
2022-08-10T02:32:36.216Z,13.43
2022-08-10T02:35:04.654Z,13.38
2022-08-10T02:37:31.518Z,13.35
2022-08-10T02:39:57.988Z,13.32
2022-08-10T02:45:19.340Z,13.29
2022-08-10T02:45:31.062Z,13.28
2022-08-10T02:48:20.073Z,13.26
2022-08-10T02:50:48.822Z,13.24
2022-08-10T02:53:49.518Z,13.21
2022-08-10T02:56:20.069Z,13.15
2022-08-10T02:58:48.909Z,13.14
2022-08-10T03:01:17.543Z,13.12
2022-08-10T03:03:47.291Z,13.09
2022-08-10T03:06:17.895Z,13.04
2022-08-10T03:08:45.238Z,13.00
2022-08-10T03:11:16.392Z,12.97
2022-08-10T03:14:03.425Z,12.91
2022-08-10T03:16:33.082Z,12.87
2022-08-10T03:19:02.403Z,12.83
2022-08-10T03:21:30.379Z,12.78
2022-08-10T03:23:58.366Z,12.74
2022-08-10T03:26:25.919Z,12.72
2022-08-10T03:28:52.953Z,12.68
2022-08-10T03:31:19.737Z,12.66
2022-08-10T03:33:46.306Z,12.61
2022-08-10T03:36:43.462Z,12.59
2022-08-10T03:38:59.371Z,12.54
2022-08-10T03:41:35.593Z,12.53
2022-08-10T03:44:03.302Z,12.50
2022-08-10T03:46:30.135Z,12.48
2022-08-10T03:48:57.820Z,12.44
2022-08-10T03:51:27.726Z,12.42
2022-08-10T03:54:04.779Z,12.37
2022-08-10T03:56:33.673Z,12.34
2022-08-10T03:59:01.325Z,12.33
2022-08-10T04:02:41.989Z,12.32
2022-08-10T04:04:19.245Z,12.32
2022-08-10T04:06:51.484Z,12.30
2022-08-10T04:09:22.365Z,12.31
2022-08-10T04:11:48.794Z,12.30
2022-08-10T04:14:38.293Z,12.28
2022-08-10T04:17:01.621Z,12.27
2022-08-10T04:19:29.861Z,12.25
2022-08-10T04:22:13.810Z,12.23
2022-08-10T04:24:41.699Z,12.23
2022-08-10T04:27:08.464Z,12.23
2022-08-10T04:29:35.206Z,12.24
2022-08-10T04:32:02.999Z,12.24
2022-08-10T04:34:33.537Z,12.25
2022-08-10T04:37:04.370Z,12.23
2022-08-10T04:39:33.305Z,12.20
2022-08-10T04:42:00.035Z,12.22
2022-08-10T04:44:26.449Z,12.27
2022-08-10T04:46:58.414Z,12.28
2022-08-10T04:49:54.083Z,12.27
2022-08-10T04:52:12.957Z,12.27
2022-08-10T04:54:39.459Z,12.31
2022-08-10T04:57:06.047Z,12.34
2022-08-10T04:59:32.582Z,12.39
2022-08-10T05:02:21.290Z,12.49
2022-08-10T05:04:45.439Z,12.59
2022-08-10T05:07:15.937Z,12.75
2022-08-10T05:10:02.957Z,12.84
2022-08-10T05:12:30.728Z,12.91
2022-08-10T05:14:57.207Z,12.95
2022-08-10T05:17:24.075Z,13.00
2022-08-10T05:20:04.321Z,13.01
2022-08-10T05:22:37.038Z,13.11
2022-08-10T05:25:04.111Z,13.16
2022-08-10T05:27:30.536Z,13.21
2022-08-10T05:30:01.009Z,13.27
2022-08-10T05:32:29.452Z,13.34
2022-08-10T05:34:55.878Z,13.36
2022-08-10T05:38:10.521Z,13.44
2022-08-10T05:40:09.530Z,13.52
2022-08-10T05:42:36.356Z,13.57
2022-08-10T05:45:03.034Z,13.67
2022-08-10T05:47:29.526Z,13.78
2022-08-10T05:50:16.487Z,13.86
2022-08-10T05:52:43.221Z,13.94
2022-08-10T05:55:09.901Z,14.05
2022-08-10T05:57:36.526Z,14.16
2022-08-10T06:00:30.847Z,14.28
2022-08-10T06:02:54.578Z,14.41
2022-08-10T06:05:25.115Z,14.53
2022-08-10T06:07:54.448Z,14.65
2022-08-10T06:10:31.584Z,14.77
2022-08-10T06:13:30.757Z,14.91
2022-08-10T06:16:03.862Z,15.09
2022-08-10T06:18:30.904Z,15.24
2022-08-10T06:20:57.508Z,15.47
2022-08-10T06:23:25.587Z,15.72
2022-08-10T06:26:10.103Z,16.06
2022-08-10T06:28:39.942Z,16.50
2022-08-10T06:31:07.271Z,16.93
2022-08-10T06:33:35.067Z,17.30
2022-08-10T06:36:02.606Z,17.77
2022-08-10T06:38:31.976Z,18.14
2022-08-10T06:41:01.490Z,18.65
2022-08-10T06:43:28.907Z,18.97
2022-08-10T06:46:08.387Z,19.58
2022-08-10T06:48:42.551Z,19.96
2022-08-10T06:51:14.154Z,20.50
2022-08-10T06:53:52.016Z,21.05
2022-08-10T06:56:36.535Z,21.51
2022-08-10T06:59:21.959Z,21.85
2022-08-10T07:02:01.133Z,21.99
2022-08-10T07:04:32.983Z,22.01
2022-08-10T07:07:02.097Z,22.07
2022-08-10T07:09:28.743Z,22.30
2022-08-10T07:11:56.807Z,22.41
2022-08-10T07:14:36.720Z,22.73
2022-08-10T07:17:03.887Z,22.63
2022-08-10T07:19:31.698Z,22.55
2022-08-10T07:21:59.404Z,22.49
2022-08-10T07:24:27.181Z,22.62
2022-08-10T07:26:55.114Z,22.84
2022-08-10T07:29:53.569Z,22.79
2022-08-10T07:32:15.318Z,22.78
2022-08-10T07:34:42.589Z,23.27
2022-08-10T07:37:10.750Z,23.06
2022-08-10T07:40:02.579Z,23.48
2022-08-10T07:42:27.467Z,23.26
2022-08-10T07:44:57.863Z,23.71
2022-08-10T07:47:46.104Z,23.43
2022-08-10T07:50:18.738Z,23.86
2022-08-10T07:52:45.959Z,23.70
2022-08-10T07:55:15.603Z,24.33
2022-08-10T07:57:43.778Z,24.56
2022-08-10T08:00:13.780Z,25.02
2022-08-10T08:02:51.663Z,24.70
2022-08-10T08:05:55.120Z,25.14
2022-08-10T08:08:07.933Z,24.74
2022-08-10T08:10:35.395Z,24.72
2022-08-10T08:13:02.738Z,25.35
2022-08-10T08:16:20.730Z,25.76
2022-08-10T08:18:19.425Z,25.87
2022-08-10T08:20:51.491Z,25.79
2022-08-10T08:24:10.890Z,25.45
2022-08-10T08:26:06.490Z,25.96
2022-08-10T08:28:34.083Z,25.68
2022-08-10T08:31:00.928Z,25.74
2022-08-10T08:33:42.158Z,25.53
2022-08-10T08:36:09.929Z,25.02
2022-08-10T08:38:37.617Z,25.04
2022-08-10T08:41:14.149Z,25.36
2022-08-10T08:43:46.531Z,25.61
2022-08-10T08:46:19.658Z,25.55
2022-08-10T08:48:52.126Z,25.42
2022-08-10T08:52:09.871Z,25.20
2022-08-10T08:54:14.992Z,25.31
2022-08-10T08:56:48.273Z,25.30
2022-08-10T08:59:22.611Z,25.26
2022-08-10T09:01:52.054Z,25.17
2022-08-10T09:04:22.245Z,25.14
2022-08-10T09:06:58.047Z,24.87
2022-08-10T09:09:36.491Z,24.74
2022-08-10T09:12:13.517Z,24.67
2022-08-10T09:14:54.924Z,24.60
2022-08-10T09:17:35.112Z,24.64
2022-08-10T09:20:26.822Z,24.68
2022-08-10T09:22:59.996Z,24.73
2022-08-10T09:25:30.457Z,24.70
2022-08-10T09:28:01.110Z,24.59
2022-08-10T09:30:38.437Z,24.60
2022-08-10T09:36:20.690Z,24.67
2022-08-10T09:36:25.754Z,24.63
2022-08-10T09:38:57.906Z,24.55
2022-08-10T09:41:24.349Z,24.52
2022-08-10T09:43:55.606Z,24.53
2022-08-10T09:46:44.067Z,24.52
2022-08-10T09:49:22.366Z,24.51
2022-08-10T09:52:00.846Z,24.48
2022-08-10T09:54:27.273Z,24.59
2022-08-10T09:57:11.975Z,24.47
2022-08-10T10:00:01.484Z,24.50
2022-08-10T10:02:28.863Z,24.55
2022-08-10T10:04:55.275Z,24.56
2022-08-10T10:07:31.084Z,24.74
2022-08-10T10:10:07.043Z,24.80
2022-08-10T10:12:39.970Z,24.90
2022-08-10T10:15:24.377Z,24.88
2022-08-10T10:18:07.025Z,24.92
2022-08-10T10:20:33.411Z,24.98
2022-08-10T10:23:02.972Z,25.08
2022-08-10T10:25:50.315Z,25.05
2022-08-10T10:29:11.435Z,25.21
2022-08-10T10:31:42.211Z,25.13
2022-08-10T10:34:11.437Z,25.16
2022-08-10T10:36:40.190Z,25.12
2022-08-10T10:39:07.689Z,25.14
2022-08-10T10:41:55.843Z,25.11
2022-08-10T10:44:42.131Z,25.29
2022-08-10T10:47:12.033Z,25.34
2022-08-10T10:49:42.761Z,25.44
2022-08-10T10:52:28.037Z,25.50
2022-08-10T10:55:03.530Z,25.87
2022-08-10T10:58:00.466Z,25.96
2022-08-10T11:00:23.156Z,25.97
2022-08-10T11:02:54.082Z,26.01
2022-08-10T11:05:24.296Z,25.84
2022-08-10T11:07:58.211Z,25.67
2022-08-10T11:10:32.941Z,25.95
2022-08-10T11:14:25.984Z,26.16
2022-08-10T11:16:05.902Z,26.50
2022-08-10T11:18:33.799Z,26.85
2022-08-10T11:21:18.740Z,27.09
2022-08-10T11:24:42.556Z,27.15
2022-08-10T11:26:48.760Z,27.23
2022-08-10T11:29:33.743Z,27.44
2022-08-10T11:32:03.247Z,27.69
2022-08-10T11:34:48.150Z,27.74
2022-08-10T11:38:32.268Z,28.62
2022-08-10T11:40:52.247Z,28.48
2022-08-10T11:43:22.065Z,27.81
2022-08-10T11:46:08.102Z,28.32
2022-08-10T11:48:53.102Z,28.81
2022-08-10T11:51:26.831Z,29.26
2022-08-10T11:54:05.480Z,29.51
2022-08-10T11:56:43.013Z,29.33
2022-08-10T11:59:28.156Z,29.67
2022-08-10T12:01:55.681Z,29.91
2022-08-10T12:04:23.475Z,30.16
2022-08-10T12:06:55.504Z,30.41
2022-08-10T12:10:11.243Z,30.29
2022-08-10T12:12:11.527Z,30.31
2022-08-10T12:14:53.447Z,30.46
2022-08-10T12:17:31.516Z,30.68
2022-08-10T12:20:16.201Z,30.86
2022-08-10T12:22:51.478Z,31.16
2022-08-10T12:25:55.996Z,31.28
2022-08-10T12:28:17.663Z,31.70
2022-08-10T12:30:50.183Z,31.75
2022-08-10T12:34:01.441Z,31.87
2022-08-10T12:36:33.620Z,31.47
2022-08-10T12:39:00.136Z,31.35
2022-08-10T12:41:44.237Z,31.40
2022-08-10T12:44:18.300Z,31.56
2022-08-10T12:47:14.135Z,31.89
2022-08-10T12:50:30.264Z,31.47
2022-08-10T12:52:38.037Z,31.77
2022-08-10T12:55:05.329Z,32.28
2022-08-10T12:57:34.587Z,32.39
2022-08-10T13:00:01.514Z,32.64
2022-08-10T13:02:28.803Z,31.81
2022-08-10T13:04:57.094Z,31.49
2022-08-10T13:08:25.878Z,30.44
2022-08-10T13:10:18.311Z,29.99
2022-08-10T13:12:47.086Z,29.55
2022-08-10T13:15:45.265Z,30.84
2022-08-10T13:18:03.980Z,31.23
2022-08-10T13:20:34.830Z,31.41
2022-08-10T13:23:02.919Z,31.35
2022-08-10T13:25:31.900Z,31.82
2022-08-10T13:28:36.252Z,32.29
2022-08-10T13:30:54.155Z,32.58
2022-08-10T13:34:40.301Z,31.83
2022-08-10T13:36:14.585Z,30.30
2022-08-10T13:38:43.859Z,30.60
2022-08-10T13:41:11.448Z,30.89
2022-08-10T13:43:48.240Z,30.46
2022-08-10T13:46:22.322Z,31.58
2022-08-10T13:48:50.306Z,31.78
2022-08-10T13:51:18.148Z,32.04
2022-08-10T13:53:46.150Z,31.55
2022-08-10T13:56:14.544Z,32.03
2022-08-10T13:58:41.946Z,31.94
2022-08-10T14:01:10.159Z,32.35
2022-08-10T14:03:38.565Z,31.58
2022-08-10T14:06:06.938Z,31.79
2022-08-10T14:08:35.446Z,31.63
2022-08-10T14:11:10.987Z,31.38
2022-08-10T14:13:42.104Z,31.58
2022-08-10T14:16:10.458Z,31.06
2022-08-10T14:18:37.189Z,30.64
2022-08-10T14:21:04.982Z,31.02
2022-08-10T14:23:32.515Z,31.28
2022-08-10T14:26:08.956Z,31.56
2022-08-10T14:28:41.748Z,30.95
2022-08-10T14:31:11.597Z,30.92
2022-08-10T14:33:41.658Z,31.84
2022-08-10T14:36:20.991Z,31.97
2022-08-10T14:38:53.139Z,31.95
2022-08-10T14:42:04.500Z,31.68
2022-08-10T14:44:12.664Z,31.14
2022-08-10T14:46:51.615Z,31.32
2022-08-10T14:49:25.584Z,31.81
2022-08-10T14:51:57.800Z,31.65
2022-08-10T14:54:29.614Z,31.73
2022-08-10T14:56:57.197Z,31.43
2022-08-10T15:00:08.558Z,31.81
2022-08-10T15:02:39.870Z,31.87
2022-08-10T15:05:03.370Z,31.25
2022-08-10T15:07:36.333Z,30.82
2022-08-10T15:10:04.573Z,30.07
2022-08-10T15:12:32.640Z,30.07
2022-08-10T15:15:01.187Z,30.21
2022-08-10T15:17:37.272Z,30.13
2022-08-10T15:20:13.597Z,30.17
2022-08-10T15:22:45.493Z,29.86
2022-08-10T15:25:17.966Z,29.78
2022-08-10T15:27:54.732Z,29.70
2022-08-10T15:30:23.760Z,29.84
2022-08-10T15:33:21.261Z,29.83
2022-08-10T15:36:22.304Z,29.54
2022-08-10T15:38:49.829Z,29.60
2022-08-10T15:41:57.475Z,29.70
2022-08-10T15:44:20.510Z,29.45
2022-08-10T15:46:49.618Z,29.24
2022-08-10T15:49:34.677Z,29.03
2022-08-10T15:52:07.405Z,28.70
2022-08-10T15:54:39.383Z,28.51
2022-08-10T15:57:08.213Z,28.47
2022-08-10T15:59:44.573Z,28.32
2022-08-10T16:02:17.287Z,28.08
2022-08-10T16:04:52.669Z,27.91
2022-08-10T16:07:45.634Z,27.98
2022-08-10T16:10:28.722Z,27.92
2022-08-10T16:14:00.707Z,27.95
2022-08-10T16:16:01.887Z,28.02
2022-08-10T16:18:29.466Z,28.00
2022-08-10T16:21:00.596Z,27.84
2022-08-10T16:23:29.565Z,27.71
2022-08-10T16:26:03.009Z,27.62
2022-08-10T16:28:33.386Z,27.62
2022-08-10T16:31:01.944Z,27.75
2022-08-10T16:33:54.009Z,27.70
2022-08-10T16:36:18.825Z,27.65
2022-08-10T16:38:47.112Z,27.59
2022-08-10T16:41:52.060Z,27.61
2022-08-10T16:44:00.959Z,27.51
2022-08-10T16:46:28.003Z,27.38
2022-08-10T16:48:56.809Z,27.38
2022-08-10T16:51:24.258Z,27.34
2022-08-10T16:53:51.831Z,27.33
2022-08-10T16:56:24.394Z,27.21
2022-08-10T16:58:53.894Z,27.24
2022-08-10T17:01:21.757Z,27.25
2022-08-10T17:04:09.396Z,27.16
2022-08-10T17:06:42.859Z,27.05
2022-08-10T17:09:15.957Z,27.04
2022-08-10T17:11:45.046Z,26.94
2022-08-10T17:14:11.543Z,26.91
2022-08-10T17:16:41.048Z,26.84
2022-08-10T17:19:11.951Z,26.79
2022-08-10T17:21:51.000Z,26.74
2022-08-10T17:24:20.140Z,26.66
2022-08-10T17:26:48.289Z,26.58
2022-08-10T17:29:59.264Z,26.50
2022-08-10T17:32:25.493Z,26.47
2022-08-10T17:34:55.527Z,26.38
2022-08-10T17:37:24.478Z,26.25
2022-08-10T17:39:58.119Z,26.22
2022-08-10T17:42:25.206Z,26.23
2022-08-10T17:44:52.889Z,26.17
2022-08-10T17:47:20.856Z,26.15
2022-08-10T17:49:47.984Z,26.03
2022-08-10T17:52:19.827Z,25.95
2022-08-10T17:54:47.171Z,25.87
2022-08-10T17:57:18.735Z,25.88
2022-08-10T17:59:46.744Z,25.77
2022-08-10T18:02:24.073Z,25.68
2022-08-10T18:04:52.634Z,25.64
2022-08-10T18:07:20.901Z,25.52
2022-08-10T18:09:54.956Z,25.50
2022-08-10T18:12:34.472Z,25.45
2022-08-10T18:15:08.518Z,25.36
2022-08-10T18:17:40.891Z,25.27
2022-08-10T18:20:08.768Z,25.19
2022-08-10T18:22:42.224Z,25.12
2022-08-10T18:25:09.374Z,25.03
2022-08-10T18:28:01.224Z,24.98
2022-08-10T18:30:26.726Z,24.95
2022-08-10T18:32:54.829Z,24.85
2022-08-10T18:35:24.353Z,24.77
2022-08-10T18:38:01.336Z,24.61
2022-08-10T18:40:35.768Z,24.52
2022-08-10T18:43:08.586Z,24.45
2022-08-10T18:45:53.102Z,24.37
2022-08-10T18:48:22.715Z,24.31
2022-08-10T18:50:52.899Z,24.25
2022-08-10T18:53:30.945Z,24.17
2022-08-10T18:56:10.570Z,24.13
2022-08-10T18:58:58.461Z,24.00
2022-08-10T19:01:28.645Z,23.96
2022-08-10T19:04:01.395Z,23.88
2022-08-10T19:06:52.846Z,23.81
2022-08-10T19:09:45.912Z,23.70
2022-08-10T19:12:30.091Z,23.59
2022-08-10T19:14:58.085Z,23.46
2022-08-10T19:18:03.862Z,23.29
2022-08-10T19:20:22.568Z,23.18
2022-08-10T19:22:53.919Z,23.10
2022-08-10T19:26:38.145Z,23.08
2022-08-10T19:28:14.476Z,23.03
2022-08-10T19:30:45.703Z,22.95
2022-08-10T19:33:18.270Z,22.99
2022-08-10T19:36:05.375Z,22.92
2022-08-10T19:38:37.993Z,22.88
2022-08-10T19:41:30.902Z,22.82
2022-08-10T19:44:18.087Z,22.62
2022-08-10T19:46:59.690Z,22.53
2022-08-10T19:49:28.869Z,22.47
2022-08-10T19:52:14.187Z,22.49
2022-08-10T19:54:50.222Z,22.45
2022-08-10T19:57:22.746Z,22.40
2022-08-10T20:00:18.622Z,22.28
2022-08-10T20:02:52.939Z,22.21
2022-08-10T20:05:27.662Z,22.22
2022-08-10T20:07:54.075Z,22.14
2022-08-10T20:10:25.052Z,22.10
2022-08-10T20:12:54.244Z,22.06
2022-08-10T20:15:22.009Z,22.01
2022-08-10T20:17:56.293Z,22.00
2022-08-10T20:20:34.475Z,21.97
2022-08-10T20:23:26.282Z,21.96
2022-08-10T20:25:58.919Z,21.74
2022-08-10T20:28:35.928Z,21.57
2022-08-10T20:31:10.301Z,21.44
2022-08-10T20:33:51.655Z,21.32
2022-08-10T20:36:38.165Z,21.17
2022-08-10T20:39:18.697Z,21.07
2022-08-10T20:41:55.452Z,20.93
2022-08-10T20:44:40.522Z,20.81
2022-08-10T20:47:18.847Z,20.69
2022-08-10T20:49:52.901Z,20.67
2022-08-10T20:52:20.806Z,20.67
2022-08-10T20:54:51.071Z,20.55
2022-08-10T20:57:54.830Z,20.51
2022-08-10T21:00:10.949Z,20.42
2022-08-10T21:02:56.486Z,20.33
2022-08-10T21:05:49.760Z,20.21
2022-08-10T21:08:30.091Z,20.08
2022-08-10T21:11:08.061Z,19.96
2022-08-10T21:13:40.653Z,19.88
2022-08-10T21:16:07.092Z,19.78
2022-08-10T21:18:33.463Z,19.68
2022-08-10T21:21:06.965Z,19.59
2022-08-10T21:25:42.267Z,19.51
2022-08-10T21:26:30.149Z,19.44
2022-08-10T21:29:21.433Z,19.33
2022-08-10T21:31:55.277Z,19.26
2022-08-10T21:34:40.425Z,19.16
2022-08-10T21:37:42.677Z,19.04
2022-08-10T21:40:32.436Z,18.95
2022-08-10T21:43:44.551Z,18.88
2022-08-10T21:46:34.267Z,18.81
2022-08-10T21:49:24.066Z,18.75
2022-08-10T21:52:08.899Z,18.68
2022-08-10T21:55:17.218Z,18.59
2022-08-10T21:58:08.959Z,18.49
2022-08-10T22:01:00.421Z,18.39
2022-08-10T22:03:46.457Z,18.31
2022-08-10T22:06:32.687Z,18.25
2022-08-10T22:09:25.159Z,18.19
2022-08-10T22:12:31.400Z,18.10
2022-08-10T22:15:21.825Z,18.03
2022-08-10T22:18:07.485Z,17.98
2022-08-10T22:20:57.552Z,17.93
2022-08-10T22:23:42.576Z,17.85
2022-08-10T22:27:00.756Z,17.79
2022-08-10T22:29:57.463Z,17.69
2022-08-10T22:32:50.810Z,17.59
2022-08-10T22:35:54.421Z,17.53
2022-08-10T22:38:42.566Z,17.45
2022-08-10T22:41:31.749Z,17.39
2022-08-10T22:44:18.223Z,17.28
2022-08-10T22:47:04.425Z,17.23
2022-08-10T22:49:30.853Z,17.20
2022-08-10T22:52:06.465Z,17.16
2022-08-10T22:54:52.421Z,17.13
2022-08-10T22:57:37.836Z,17.08
2022-08-10T23:00:15.208Z,17.01
2022-08-10T23:03:02.733Z,16.96
2022-08-10T23:05:34.214Z,16.87
2022-08-10T23:08:29.733Z,16.81
2022-08-10T23:11:01.977Z,16.72
2022-08-10T23:13:36.143Z,16.66
2022-08-10T23:16:28.099Z,16.63
2022-08-10T23:46:41.416Z,16.06
2022-08-10T23:49:10.565Z,15.99
2022-08-10T23:51:55.299Z,15.95
2022-08-10T23:54:23.985Z,15.92
2022-08-10T23:56:56.550Z,15.87
2022-08-10T23:59:28.426Z,15.83
